Khalkh-Gol, Mongolia
Current Conditions -  °F | °C
As of 4:30 PM on Saturday 20 Dec 2014 (Local Time) from UIAA Reporting Station
Scattered Clouds Scattered Clouds  
Wind Chill: -5°   Ceiling: Unl
Heat Index:   Visibility: 6mi
Dew Point: -2°   Wind: 7mph
Humidity: 67%   Direction: 150°SSE
Pressure: 30.09"   Gusts: NA
Location:  47.62°N, 118.62°E
Report Text: UIAA 200830Z 15003MPS 9999 FEW100 SCT200 M14/M19 Q1019 TEMPO5000 BR RMK QFE705 29CLRD70
Loading
Personal Weather Stations






























Interactive Weather Map New forecast layout! Learn more

10-Day Weather Forecast

Advertisements
Track Severe Weather on mobile